Time;durP1;ratioP1;P1;durP2;ratioP2;P2;SDS_P1;SDS_P2;PMS_P1;PMS_P2;Temp;Humidity;BMP_temperature;BMP_pressure;BME280_temperature;BME280_humidity;BME280_pressure;Samples;Min_cycle;Max_cycle;Signal;HPM_P1;HPM_P2
2023/05/14 00:00:53;;;;;;;5.83;4.70;;;14.20;99.90;;;;;;5095306;28;20254;-59
2023/05/14 00:03:20;;;;;;;5.73;5.10;;;14.10;99.90;;;;;;5096437;28;20200;-59
2023/05/14 00:05:49;;;;;;;5.47;4.77;;;14.00;99.90;;;;;;5096432;28;20237;-59
2023/05/14 00:08:16;;;;;;;5.33;4.83;;;14.00;99.90;;;;;;5096329;28;20620;-59
2023/05/14 00:10:43;;;;;;;7.47;5.27;;;14.00;99.90;;;;;;5095581;28;20230;-59
2023/05/14 00:13:10;;;;;;;5.90;5.27;;;14.00;99.90;;;;;;5096116;28;20208;-58
2023/05/14 00:15:37;;;;;;;5.60;5.10;;;14.00;99.90;;;;;;5095936;28;20204;-59
2023/05/14 00:18:04;;;;;;;5.53;5.03;;;13.90;99.90;;;;;;5095647;28;20203;-59
2023/05/14 00:20:31;;;;;;;7.97;5.13;;;13.80;99.90;;;;;;5095856;28;20258;-60
2023/05/14 00:23:00;;;;;;;5.47;4.97;;;13.80;99.90;;;;;;5095457;28;20769;-59
2023/05/14 00:25:28;;;;;;;6.40;4.67;;;13.70;99.90;;;;;;5095717;28;20547;-58
2023/05/14 00:27:54;;;;;;;5.50;5.00;;;13.60;99.90;;;;;;5095627;28;20211;-59
2023/05/14 00:30:21;;;;;;;6.63;4.50;;;13.50;99.90;;;;;;5095796;28;20224;-59
2023/05/14 00:32:48;;;;;;;6.90;4.97;;;13.40;99.90;;;;;;5095673;28;20228;-59
2023/05/14 00:35:15;;;;;;;6.27;5.07;;;13.30;99.90;;;;;;5095433;28;20215;-59
2023/05/14 00:37:42;;;;;;;7.77;4.77;;;13.10;99.90;;;;;;5095218;28;20204;-59
2023/05/14 00:40:12;;;;;;;6.50;5.00;;;13.00;99.90;;;;;;5095599;28;20258;-59
2023/05/14 00:42:39;;;;;;;6.07;5.17;;;12.90;99.90;;;;;;5095607;28;20243;-59
2023/05/14 00:45:07;;;;;;;5.37;4.87;;;12.80;99.90;;;;;;5095573;28;20261;-59
2023/05/14 00:47:35;;;;;;;7.80;5.50;;;12.80;99.90;;;;;;5095233;28;20689;-59
2023/05/14 00:50:03;;;;;;;6.43;5.07;;;12.70;99.90;;;;;;5095573;28;20285;-59
2023/05/14 00:52:30;;;;;;;5.90;5.20;;;12.70;99.90;;;;;;5096102;28;20341;-59
2023/05/14 00:54:57;;;;;;;5.27;4.77;;;12.60;99.90;;;;;;5095549;28;20232;-59
2023/05/14 00:57:25;;;;;;;6.97;5.27;;;12.60;99.90;;;;;;5095838;28;20664;-59
2023/05/14 00:59:53;;;;;;;6.17;5.57;;;12.60;99.90;;;;;;5094553;28;20970;-59
2023/05/14 01:02:20;;;;;;;5.97;5.37;;;12.60;99.90;;;;;;5094167;28;20314;-59
2023/05/14 01:04:47;;;;;;;7.27;5.23;;;12.60;99.90;;;;;;5094322;28;20207;-57
2023/05/14 01:07:22;;;;;;;7.00;5.23;;;12.50;99.90;;;;;;5094249;28;20286;-59
2023/05/14 01:09:58;;;;;;;6.00;5.40;;;12.50;99.90;;;;;;5094143;28;20645;-58
2023/05/14 01:12:44;;;;;;;7.17;5.60;;;12.40;99.90;;;;;;5094413;28;20204;-57
2023/05/14 01:15:15;;;;;;;6.70;5.83;;;12.30;99.90;;;;;;5094475;28;20236;-58
2023/05/14 01:17:46;;;;;;;7.73;6.77;;;12.30;99.90;;;;;;5093887;28;20295;-59
2023/05/14 01:20:13;;;;;;;6.70;5.93;;;12.30;99.90;;;;;;5094446;28;20644;-59
2023/05/14 01:22:41;;;;;;;5.63;5.13;;;12.30;99.90;;;;;;5093949;28;20227;-59
2023/05/14 01:25:09;;;;;;;8.73;5.53;;;12.20;99.90;;;;;;5094154;28;20664;-58
2023/05/14 01:27:42;;;;;;;6.67;5.40;;;12.20;99.90;;;;;;5093758;28;20204;-58
2023/05/14 01:30:16;;;;;;;6.47;5.30;;;12.20;99.90;;;;;;5094101;28;20224;-58
2023/05/14 01:32:47;;;;;;;5.83;5.00;;;12.10;99.90;;;;;;5093568;28;20208;-58
2023/05/14 01:35:15;;;;;;;5.77;5.27;;;12.10;99.90;;;;;;5093939;28;20622;-59
2023/05/14 01:37:44;;;;;;;5.80;5.20;;;12.00;99.90;;;;;;5093873;28;20210;-59
2023/05/14 01:40:12;;;;;;;5.07;4.67;;;11.90;99.90;;;;;;5093888;28;20235;-59
2023/05/14 01:42:39;;;;;;;5.70;4.50;;;11.90;99.90;;;;;;5093291;28;20220;-59
2023/05/14 01:45:06;;;;;;;4.80;4.40;;;11.80;99.90;;;;;;5093629;28;20228;-58
2023/05/14 01:47:33;;;;;;;5.37;4.77;;;11.80;99.90;;;;;;5093744;28;20210;-59
2023/05/14 01:50:00;;;;;;;4.70;4.10;;;11.70;99.90;;;;;;5108018;22;20246;-65
2023/05/14 01:52:27;;;;;;;4.63;4.23;;;11.60;99.90;;;;;;5072086;28;20271;-65
2023/05/14 01:54:57;;;;;;;5.03;4.60;;;11.60;99.90;;;;;;5071540;28;20661;-66
2023/05/14 01:57:23;;;;;;;5.20;4.70;;;11.50;99.90;;;;;;5071772;28;20215;-66
2023/05/14 01:59:50;;;;;;;4.73;4.33;;;11.50;99.90;;;;;;5071335;28;20205;-65
2023/05/14 02:02:17;;;;;;;4.77;4.07;;;11.60;99.90;;;;;;5071943;28;20282;-66
2023/05/14 02:04:43;;;;;;;5.83;4.43;;;11.60;99.90;;;;;;5071583;28;20209;-66
2023/05/14 02:07:10;;;;;;;5.97;3.90;;;11.60;99.90;;;;;;5071531;28;20295;-65
2023/05/14 02:09:37;;;;;;;4.83;4.40;;;11.60;99.90;;;;;;5071508;28;20627;-65
2023/05/14 02:12:06;;;;;;;4.80;4.37;;;11.50;99.90;;;;;;5071516;28;20311;-66
2023/05/14 02:14:32;;;;;;;5.03;4.53;;;11.50;99.90;;;;;;5071499;28;20248;-68
2023/05/14 02:16:59;;;;;;;5.70;4.03;;;11.40;99.90;;;;;;5071717;28;20250;-66
2023/05/14 02:19:26;;;;;;;4.80;4.40;;;11.30;99.90;;;;;;5071416;28;20215;-66
2023/05/14 02:21:52;;;;;;;6.07;4.30;;;11.30;99.90;;;;;;5071444;28;20224;-65
2023/05/14 02:24:19;;;;;;;5.07;4.23;;;11.20;99.90;;;;;;5074779;28;20204;-66
2023/05/14 02:26:46;;;;;;;4.97;4.47;;;11.30;99.90;;;;;;5075390;28;20727;-66
2023/05/14 02:29:14;;;;;;;5.20;4.43;;;11.30;99.90;;;;;;5075413;28;20631;-65
2023/05/14 02:31:40;;;;;;;5.47;4.70;;;11.30;99.90;;;;;;5075426;28;20232;-64
2023/05/14 02:34:07;;;;;;;5.50;4.63;;;11.40;99.90;;;;;;5075442;28;20262;-65
2023/05/14 02:36:34;;;;;;;5.27;4.53;;;11.40;99.90;;;;;;5075238;28;20211;-65
2023/05/14 02:39:01;;;;;;;4.53;4.13;;;11.40;99.90;;;;;;5075204;28;20299;-66
2023/05/14 02:41:27;;;;;;;5.83;5.17;;;11.40;99.90;;;;;;5075034;28;20224;-65
2023/05/14 02:43:54;;;;;;;5.60;4.43;;;11.50;99.90;;;;;;5075304;28;20228;-65
2023/05/14 02:46:22;;;;;;;6.10;5.50;;;11.50;99.90;;;;;;5075217;28;20292;-65
2023/05/14 02:48:49;;;;;;;7.63;5.53;;;11.50;99.90;;;;;;5074973;28;20208;-66
2023/05/14 02:51:16;;;;;;;5.63;5.03;;;11.50;99.90;;;;;;5074924;28;20278;-66
2023/05/14 02:53:42;;;;;;;5.27;4.77;;;11.60;99.90;;;;;;5074925;28;20288;-65
2023/05/14 02:56:09;;;;;;;6.60;4.63;;;11.70;99.90;;;;;;5074943;28;20211;-65
2023/05/14 02:58:36;;;;;;;4.63;4.23;;;11.70;99.90;;;;;;5074863;28;20205;-65
2023/05/14 03:01:02;;;;;;;6.60;4.90;;;11.80;99.90;;;;;;5074918;28;20224;-65
2023/05/14 03:03:31;;;;;;;4.93;4.53;;;11.90;99.90;;;;;;5074770;28;20278;-66
2023/05/14 03:05:58;;;;;;;4.83;4.43;;;11.90;99.90;;;;;;5074766;28;20201;-64
2023/05/14 03:08:24;;;;;;;4.70;4.30;;;12.00;99.90;;;;;;5074356;28;20315;-65
2023/05/14 03:10:51;;;;;;;5.67;5.10;;;12.00;99.90;;;;;;5074532;28;20733;-66
2023/05/14 03:13:19;;;;;;;4.93;4.47;;;12.10;99.90;;;;;;5074510;28;20665;-66
2023/05/14 03:15:46;;;;;;;4.97;4.13;;;12.10;99.90;;;;;;5074442;28;20209;-65
2023/05/14 03:18:13;;;;;;;6.53;4.90;;;12.10;99.90;;;;;;5074329;28;20208;-66
2023/05/14 03:20:41;;;;;;;5.30;4.80;;;12.20;99.90;;;;;;5074370;28;20254;-66
2023/05/14 03:23:08;;;;;;;4.90;4.40;;;12.10;99.90;;;;;;5074283;28;20241;-66
2023/05/14 03:25:34;;;;;;;4.57;4.17;;;12.20;99.90;;;;;;5074855;28;20209;-66
2023/05/14 03:28:01;;;;;;;7.13;5.00;;;12.20;99.90;;;;;;5074243;28;20201;-66
2023/05/14 03:30:28;;;;;;;5.37;4.87;;;12.40;99.90;;;;;;5074434;28;20224;-66
2023/05/14 03:32:54;;;;;;;5.43;4.93;;;12.40;99.90;;;;;;5074333;28;20217;-65
2023/05/14 03:35:21;;;;;;;5.30;4.80;;;12.40;99.90;;;;;;5072949;28;20208;-65
2023/05/14 03:37:49;;;;;;;5.77;5.20;;;12.40;99.90;;;;;;5073917;28;20205;-66
2023/05/14 03:40:16;;;;;;;6.07;4.90;;;12.50;99.90;;;;;;5074308;28;20224;-66
2023/05/14 03:42:43;;;;;;;6.87;4.70;;;12.40;99.90;;;;;;5074138;28;20225;-65
2023/05/14 03:45:10;;;;;;;6.53;4.73;;;12.50;99.90;;;;;;5074238;28;20255;-66
2023/05/14 03:47:36;;;;;;;5.97;4.87;;;12.60;99.90;;;;;;5074059;28;20205;-66
2023/05/14 03:50:03;;;;;;;5.20;4.70;;;12.70;99.90;;;;;;5073982;28;20213;-66
2023/05/14 03:52:30;;;;;;;4.90;4.50;;;12.80;99.90;;;;;;5073910;28;20660;-66
2023/05/14 03:54:58;;;;;;;6.33;4.47;;;12.90;99.90;;;;;;5074072;28;20295;-65
2023/05/14 03:57:25;;;;;;;4.93;4.43;;;12.80;99.90;;;;;;5073886;28;20212;-67
2023/05/14 03:59:51;;;;;;;5.30;4.37;;;12.80;99.90;;;;;;5073537;28;20212;-68
2023/05/14 04:02:18;;;;;;;6.50;4.20;;;12.90;99.90;;;;;;5073832;28;20209;-68
2023/05/14 04:04:45;;;;;;;9.07;4.53;;;13.00;99.90;;;;;;5073696;28;20215;-67
2023/05/14 04:07:12;;;;;;;4.50;4.10;;;13.10;99.90;;;;;;5073860;28;20213;-68
2023/05/14 04:09:38;;;;;;;5.37;4.50;;;13.10;99.90;;;;;;5073573;28;20212;-68
2023/05/14 04:12:08;;;;;;;4.93;4.53;;;13.20;99.90;;;;;;5073676;28;20228;-66
2023/05/14 04:14:34;;;;;;;6.77;4.93;;;13.20;99.90;;;;;;5073668;28;20212;-67
2023/05/14 04:17:01;;;;;;;7.93;5.00;;;13.20;99.90;;;;;;5073533;28;20212;-68
2023/05/14 04:19:28;;;;;;;7.30;4.80;;;13.00;99.90;;;;;;5073023;28;20205;-67
2023/05/14 04:21:54;;;;;;;6.37;5.00;;;13.00;99.90;;;;;;5073477;28;20303;-67
2023/05/14 04:24:21;;;;;;;5.47;4.70;;;13.10;99.90;;;;;;5073522;28;20277;-67
2023/05/14 04:26:48;;;;;;;5.63;5.13;;;13.20;99.90;;;;;;5073249;28;20201;-66
2023/05/14 04:29:16;;;;;;;6.63;5.33;;;13.30;99.90;;;;;;5076428;28;20215;-68
2023/05/14 04:31:42;;;;;;;5.70;5.10;;;13.40;99.90;;;;;;5074260;28;20240;-68
2023/05/14 04:34:09;;;;;;;6.23;5.17;;;13.50;99.90;;;;;;5073346;28;20254;-68
2023/05/14 04:36:36;;;;;;;5.67;5.17;;;13.40;99.90;;;;;;5073153;28;20212;-68
2023/05/14 04:39:03;;;;;;;5.67;4.67;;;13.10;99.90;;;;;;5072905;28;20213;-69
2023/05/14 04:41:29;;;;;;;9.10;6.73;;;12.90;99.90;;;;;;5072922;28;20287;-68
2023/05/14 04:43:57;;;;;;;8.00;7.20;;;12.70;99.90;;;;;;5072960;28;20278;-68
2023/05/14 04:46:25;;;;;;;8.07;7.27;;;12.60;99.90;;;;;;5072551;28;20224;-68
2023/05/14 04:48:52;;;;;;;8.90;7.50;;;12.50;99.90;;;;;;5073106;28;20212;-69
2023/05/14 04:51:18;;;;;;;9.87;6.73;;;12.60;99.90;;;;;;5072613;28;20252;-69
2023/05/14 04:53:45;;;;;;;9.83;6.17;;;12.60;99.90;;;;;;5072927;28;20669;-69
2023/05/14 04:56:12;;;;;;;6.43;5.30;;;12.50;99.90;;;;;;5072868;28;20561;-69
2023/05/14 04:58:38;;;;;;;7.47;6.10;;;12.50;99.90;;;;;;5072518;28;20630;-68
2023/05/14 05:01:06;;;;;;;6.37;5.37;;;12.40;99.90;;;;;;5072427;28;20224;-68
2023/05/14 05:03:34;;;;;;;6.00;5.50;;;12.50;99.90;;;;;;5072602;28;20365;-67
2023/05/14 05:06:01;;;;;;;7.37;5.77;;;12.60;99.90;;;;;;5072561;28;20695;-68
2023/05/14 05:08:27;;;;;;;6.40;5.73;;;12.90;99.90;;;;;;5072267;28;20674;-69
2023/05/14 05:10:54;;;;;;;8.20;5.97;;;13.10;99.90;;;;;;5072300;28;20233;-69
2023/05/14 05:13:21;;;;;;;6.90;5.67;;;13.30;99.90;;;;;;5072322;28;20233;-68
2023/05/14 05:15:47;;;;;;;8.57;6.37;;;13.50;99.90;;;;;;5072700;28;20228;-68
2023/05/14 05:18:14;;;;;;;7.77;6.23;;;13.70;99.90;;;;;;5072191;28;20213;-68
2023/05/14 05:20:42;;;;;;;6.07;5.50;;;13.80;99.90;;;;;;5072121;28;20225;-68
2023/05/14 05:23:09;;;;;;;8.87;7.47;;;14.00;99.90;;;;;;5072211;28;20223;-68
2023/05/14 05:25:36;;;;;;;7.43;6.20;;;14.10;99.90;;;;;;5072238;28;20209;-69
2023/05/14 05:28:02;;;;;;;7.40;6.37;;;14.30;99.90;;;;;;5072306;28;20613;-69
2023/05/14 05:30:29;;;;;;;6.23;5.63;;;14.30;99.90;;;;;;5072440;28;20232;-67
2023/05/14 05:32:56;;;;;;;7.07;5.80;;;14.30;99.90;;;;;;5072308;28;20233;-69
2023/05/14 05:35:23;;;;;;;7.00;6.30;;;14.50;99.90;;;;;;5072264;28;20229;-68
2023/05/14 05:37:51;;;;;;;6.40;5.80;;;14.70;99.90;;;;;;5072259;28;20672;-68
2023/05/14 05:40:18;;;;;;;6.70;6.00;;;14.80;99.90;;;;;;5072011;28;20232;-68
2023/05/14 05:42:45;;;;;;;9.20;6.07;;;14.60;99.90;;;;;;5072187;28;20212;-68
2023/05/14 05:45:11;;;;;;;6.80;6.03;;;14.60;99.90;;;;;;5072070;28;20745;-67
2023/05/14 05:47:38;;;;;;;9.30;6.33;;;14.60;99.90;;;;;;5072256;28;20205;-68
2023/05/14 05:50:06;;;;;;;6.83;5.87;;;14.60;99.90;;;;;;5071566;28;20221;-68
2023/05/14 05:52:33;;;;;;;7.57;6.37;;;14.70;99.90;;;;;;5072015;28;20212;-68
2023/05/14 05:55:01;;;;;;;7.17;6.40;;;14.80;99.90;;;;;;5071709;28;20246;-68
2023/05/14 05:57:27;;;;;;;7.40;6.60;;;15.00;99.90;;;;;;5071172;28;20216;-67
2023/05/14 05:59:54;;;;;;;6.43;5.70;;;15.10;99.90;;;;;;5072110;28;20208;-67
2023/05/14 06:02:21;;;;;;;7.03;5.60;;;15.30;99.90;;;;;;5072014;28;20201;-67
2023/05/14 06:04:48;;;;;;;5.77;5.20;;;15.50;99.90;;;;;;5071693;28;20225;-66
2023/05/14 06:07:14;;;;;;;5.97;5.37;;;15.60;99.90;;;;;;5071840;28;20584;-68
2023/05/14 06:09:41;;;;;;;7.17;5.97;;;15.70;99.90;;;;;;5071729;28;20209;-68
2023/05/14 06:12:10;;;;;;;6.00;5.30;;;15.80;99.90;;;;;;5071483;28;20225;-66
2023/05/14 06:14:36;;;;;;;6.03;5.43;;;15.60;99.90;;;;;;5071887;28;20208;-68
2023/05/14 06:17:03;;;;;;;5.83;5.30;;;15.50;99.90;;;;;;5071660;28;20295;-69
2023/05/14 06:19:30;;;;;;;29.93;26.73;;;15.30;99.90;;;;;;5071343;28;20211;-68
2023/05/14 06:21:57;;;;;;;10.83;9.37;;;15.10;99.90;;;;;;5071499;28;20221;-67
2023/05/14 06:24:23;;;;;;;6.77;5.83;;;15.10;99.90;;;;;;5071352;28;20220;-69
2023/05/14 06:26:50;;;;;;;6.13;5.10;;;15.30;99.90;;;;;;5071360;28;20211;-68
2023/05/14 06:29:18;;;;;;;5.97;5.37;;;15.30;99.90;;;;;;5071308;28;20717;-68
2023/05/14 06:31:45;;;;;;;7.43;5.30;;;15.10;99.90;;;;;;5071469;28;20240;-68
2023/05/14 06:34:12;;;;;;;6.47;5.07;;;15.00;99.90;;;;;;5071624;28;20251;-68
2023/05/14 06:36:39;;;;;;;7.00;5.90;;;15.00;99.90;;;;;;5071385;28;20205;-67
2023/05/14 06:39:05;;;;;;;5.83;5.27;;;15.30;99.90;;;;;;5071139;28;20213;-68
2023/05/14 06:41:32;;;;;;;7.00;5.43;;;15.70;99.90;;;;;;5071296;28;20240;-67
2023/05/14 06:43:59;;;;;;;9.13;5.97;;;16.10;99.90;;;;;;5071437;28;20765;-67
2023/05/14 06:46:27;;;;;;;7.87;5.83;;;16.30;99.90;;;;;;5071097;28;20673;-68
2023/05/14 06:48:53;;;;;;;6.95;5.93;;;16.20;99.90;;;;;;5071132;28;20262;-68
2023/05/14 06:51:20;;;;;;;7.47;5.70;;;16.00;99.90;;;;;;5070979;28;20232;-62
2023/05/14 06:53:47;;;;;;;7.15;6.45;;;16.10;99.90;;;;;;5071237;28;20578;-62
2023/05/14 06:56:14;;;;;;;6.33;5.73;;;16.20;99.90;;;;;;5071384;28;20201;-65
2023/05/14 06:58:41;;;;;;;7.43;5.88;;;16.60;99.90;;;;;;5071218;28;20205;-65
2023/05/14 07:01:07;;;;;;;7.47;5.47;;;17.30;99.90;;;;;;5071083;28;20225;-65
2023/05/14 07:03:35;;;;;;;7.82;5.50;;;17.80;99.90;;;;;;5071099;28;20232;-65
2023/05/14 07:06:02;;;;;;;5.88;5.28;;;18.30;99.90;;;;;;5070984;28;20212;-66
2023/05/14 07:08:29;;;;;;;7.68;5.50;;;18.70;99.90;;;;;;5071250;28;20213;-66
2023/05/14 07:10:56;;;;;;;5.65;5.15;;;19.20;99.90;;;;;;5074731;28;20236;-66
2023/05/14 07:13:23;;;;;;;8.50;5.90;;;19.60;99.90;;;;;;5074587;28;20236;-66
2023/05/14 07:15:50;;;;;;;9.05;5.70;;;19.90;99.90;;;;;;5074573;28;20350;-62
2023/05/14 07:18:16;;;;;;;7.43;6.20;;;19.90;99.90;;;;;;5074311;28;20347;-62
2023/05/14 07:20:44;;;;;;;7.50;6.68;;;19.70;99.90;;;;;;5074741;28;20229;-61
2023/05/14 07:23:11;;;;;;;8.00;5.60;;;19.50;99.90;;;;;;5074686;28;20201;-62
2023/05/14 07:25:38;;;;;;;7.15;5.78;;;19.30;99.90;;;;;;5074600;28;20281;-61
2023/05/14 07:28:05;;;;;;;6.13;5.45;;;19.30;99.90;;;;;;5074444;28;20230;-61
2023/05/14 07:30:32;;;;;;;6.63;5.55;;;19.30;99.90;;;;;;5074270;28;20728;-60
2023/05/14 07:32:58;;;;;;;7.88;5.20;;;19.40;99.90;;;;;;5074239;28;20205;-61
2023/05/14 07:35:25;;;;;;;6.13;5.47;;;19.30;99.90;;;;;;5074385;28;20208;-62
2023/05/14 07:37:53;;;;;;;6.15;5.55;;;19.30;99.90;;;;;;5074480;28;20204;-61
2023/05/14 07:40:20;;;;;;;6.28;5.40;;;19.30;99.90;;;;;;5074080;28;20225;-61
2023/05/14 07:42:46;;;;;;;6.15;5.22;;;19.30;99.90;;;;;;5074070;28;20567;-62
2023/05/14 07:45:13;;;;;;;6.13;5.20;;;19.30;99.90;;;;;;5073941;28;20225;-61
2023/05/14 07:47:40;;;;;;;8.02;6.72;;;19.50;99.90;;;;;;5073988;28;20205;-61
2023/05/14 07:50:08;;;;;;;8.88;7.53;;;19.80;99.90;;;;;;5073708;28;20315;-60
2023/05/14 07:52:35;;;;;;;8.13;6.85;;;19.90;99.90;;;;;;5119022;22;20233;-59
2023/05/14 07:55:04;;;;;;;6.88;5.60;;;20.10;99.90;;;;;;5097820;28;20298;-59
2023/05/14 07:57:31;;;;;;;6.55;5.28;;;20.30;99.90;;;;;;5096496;28;20208;-58
2023/05/14 07:59:58;;;;;;;6.72;5.38;;;20.50;99.90;;;;;;5096190;28;20211;-59
2023/05/14 08:02:25;;;;;;;6.88;5.22;;;20.90;99.90;;;;;;5095911;28;20228;-58
2023/05/14 08:04:53;;;;;;;6.07;5.38;;;21.30;99.90;;;;;;5095967;28;20223;-58
2023/05/14 08:07:20;;;;;;;5.88;5.32;;;21.20;99.90;;;;;;5095862;28;20295;-58
2023/05/14 08:09:47;;;;;;;6.05;5.10;;;21.70;99.90;;;;;;5096063;28;20214;-58
2023/05/14 08:12:15;;;;;;;6.63;5.30;;;22.30;99.90;;;;;;5095662;28;20768;-58
2023/05/14 08:14:42;;;;;;;5.40;4.90;;;22.10;99.90;;;;;;5095222;28;20204;-58
2023/05/14 08:17:09;;;;;;;5.72;5.20;;;22.40;99.90;;;;;;5095385;28;20215;-59
2023/05/14 08:19:36;;;;;;;5.72;5.22;;;22.10;99.90;;;;;;5095866;28;20239;-59
2023/05/14 08:22:03;;;;;;;7.18;5.30;;;22.10;99.90;;;;;;5094221;28;20228;-58
2023/05/14 08:24:30;;;;;;;6.60;5.20;;;22.40;99.90;;;;;;5094794;28;20227;-58
2023/05/14 08:26:57;;;;;;;8.45;5.43;;;22.60;99.90;;;;;;5094372;28;20208;-58
2023/05/14 08:29:25;;;;;;;7.88;5.65;;;23.60;99.90;;;;;;5094124;28;20705;-59
2023/05/14 08:31:52;;;;;;;7.18;5.10;;;23.70;99.90;;;;;;5094736;28;20228;-58
2023/05/14 08:34:19;;;;;;;5.82;5.20;;;23.90;99.90;;;;;;5094582;28;20207;-58
2023/05/14 08:36:46;;;;;;;6.15;5.15;;;24.30;99.90;;;;;;5094377;28;20315;-59
2023/05/14 08:39:13;;;;;;;5.90;5.40;;;24.10;99.90;;;;;;5094212;28;20216;-58
2023/05/14 08:41:40;;;;;;;7.57;5.57;;;24.00;99.90;;;;;;5094080;28;20259;-59
2023/05/14 08:44:12;;;;;;;5.90;5.30;;;24.20;99.90;;;;;;5093898;28;20310;-58
2023/05/14 08:46:40;;;;;;;5.82;5.18;;;23.80;99.90;;;;;;5093760;28;20213;-59
2023/05/14 08:49:16;;;;;;;7.30;6.32;;;22.90;99.90;;;;;;5094089;28;20207;-58
2023/05/14 08:51:43;;;;;;;6.53;5.93;;;22.30;99.90;;;;;;5094285;28;20616;-58
2023/05/14 08:54:13;;;;;;;5.97;5.47;;;22.20;99.90;;;;;;5093958;28;20642;-58
2023/05/14 08:56:41;;;;;;;6.53;5.60;;;22.20;99.90;;;;;;5093821;28;20208;-59
2023/05/14 08:59:08;;;;;;;6.95;6.25;;;22.20;99.90;;;;;;5093755;28;20255;-59
2023/05/14 09:01:37;;;;;;;6.35;5.75;;;22.20;99.90;;;;;;5093813;28;20227;-59
2023/05/14 09:04:07;;;;;;;7.13;5.63;;;22.30;99.90;;;;;;5093277;28;20228;-58
2023/05/14 09:06:36;;;;;;;6.45;5.35;;;22.50;99.90;;;;;;5093410;28;20671;-58
2023/05/14 09:09:03;;;;;;;6.63;5.75;;;22.70;99.90;;;;;;5093389;28;20200;-59
2023/05/14 09:11:30;;;;;;;6.63;5.93;;;22.70;99.90;;;;;;5093759;28;20224;-58
2023/05/14 09:13:56;;;;;;;5.78;5.28;;;22.70;99.90;;;;;;5093644;28;20231;-60
2023/05/14 09:16:25;;;;;;;7.20;5.00;;;22.60;99.90;;;;;;5093461;28;20207;-59
2023/05/14 09:18:52;;;;;;;7.05;6.10;;;22.60;99.90;;;;;;5091684;28;20205;-60
2023/05/14 09:21:21;;;;;;;5.72;5.15;;;22.60;99.90;;;;;;5092554;28;20224;-63
2023/05/14 09:23:53;;;;;;;6.22;5.55;;;22.50;99.90;;;;;;5094200;28;20261;-61
2023/05/14 09:26:24;;;;;;;6.18;5.55;;;22.20;99.90;;;;;;5094515;28;20223;-62
2023/05/14 09:28:54;;;;;;;9.38;5.35;;;21.70;99.90;;;;;;5093516;28;20204;-59
2023/05/14 09:31:21;;;;;;;6.13;5.30;;;21.20;99.90;;;;;;5094466;28;20635;-62
2023/05/14 09:33:51;;;;;;;5.95;5.20;;;21.10;99.90;;;;;;5095219;28;20663;-64
2023/05/14 09:36:18;;;;;;;7.03;5.63;;;21.00;99.90;;;;;;5093749;28;20207;-58
2023/05/14 09:38:46;;;;;;;6.35;5.75;;;20.90;99.90;;;;;;5093197;28;20651;-57
2023/05/14 09:41:13;;;;;;;7.47;5.45;;;21.00;99.90;;;;;;5092789;28;20281;-59
2023/05/14 09:43:40;;;;;;;6.15;5.15;;;21.00;99.90;;;;;;5093139;28;20295;-58
2023/05/14 09:46:07;;;;;;;8.23;6.22;;;21.30;99.90;;;;;;5092743;28;20223;-58
2023/05/14 09:48:34;;;;;;;5.95;5.35;;;21.30;99.90;;;;;;5092951;28;20200;-58
2023/05/14 09:51:01;;;;;;;6.10;5.10;;;21.30;99.90;;;;;;5092842;28;20270;-58
2023/05/14 09:53:29;;;;;;;6.30;5.68;;;21.10;99.90;;;;;;5093350;28;20289;-61
2023/05/14 09:55:58;;;;;;;6.10;5.50;;;20.90;99.90;;;;;;5094241;28;20203;-59
2023/05/14 09:58:25;;;;;;;8.43;5.20;;;20.90;99.90;;;;;;5092461;28;20211;-59
2023/05/14 10:00:53;;;;;;;8.73;5.75;;;20.90;99.90;;;;;;5093070;28;20262;-58
2023/05/14 10:03:22;;;;;;;5.38;4.85;;;20.90;99.90;;;;;;5092936;28;20219;-58
2023/05/14 10:05:50;;;;;;;7.22;5.88;;;20.90;99.90;;;;;;5093027;28;20314;-57
2023/05/14 10:08:24;;;;;;;5.90;5.30;;;21.00;99.90;;;;;;5093371;28;20295;-57
2023/05/14 10:10:53;;;;;;;6.07;5.47;;;21.10;99.90;;;;;;5092514;28;20224;-58
2023/05/14 10:13:28;;;;;;;6.55;5.55;;;21.30;99.90;;;;;;5093086;28;20571;-60
2023/05/14 10:16:01;;;;;;;6.03;5.43;;;21.40;99.90;;;;;;5093216;28;20678;-60
2023/05/14 10:18:33;;;;;;;5.70;5.07;;;21.50;99.90;;;;;;5092702;28;20212;-60
2023/05/14 10:21:05;;;;;;;6.00;5.43;;;21.40;99.90;;;;;;5092910;28;20220;-61
2023/05/14 10:23:32;;;;;;;6.72;5.78;;;21.50;99.90;;;;;;5093009;28;20751;-59
2023/05/14 10:25:59;;;;;;;6.63;5.65;;;21.50;99.90;;;;;;5092620;28;20274;-59
2023/05/14 10:28:28;;;;;;;5.95;5.35;;;21.70;99.90;;;;;;5092443;28;20332;-59
2023/05/14 10:30:55;;;;;;;6.13;5.15;;;21.80;99.90;;;;;;5092336;28;20227;-59
2023/05/14 10:33:22;;;;;;;5.82;5.07;;;21.70;99.90;;;;;;5092322;28;20683;-59
2023/05/14 10:35:56;;;;;;;5.47;4.63;;;21.70;99.90;;;;;;5092322;28;20283;-59
2023/05/14 10:38:25;;;;;;;4.68;4.22;;;21.80;99.90;;;;;;5092361;28;20201;-58
2023/05/14 10:40:56;;;;;;;4.15;3.75;;;21.80;99.90;;;;;;5092204;28;20220;-59
2023/05/14 10:43:27;;;;;;;4.53;4.13;;;21.70;99.90;;;;;;5092113;28;20250;-59
2023/05/14 10:45:55;;;;;;;5.72;3.83;;;22.00;99.90;;;;;;5095762;28;20294;-59
2023/05/14 10:48:22;;;;;;;6.88;4.00;;;22.20;99.90;;;;;;5096487;28;20215;-60
2023/05/14 10:50:50;;;;;;;4.43;3.50;;;22.60;99.90;;;;;;5095920;28;20232;-60
2023/05/14 10:53:18;;;;;;;3.35;3.05;;;22.80;99.90;;;;;;5096013;28;20261;-59
2023/05/14 10:55:46;;;;;;;3.55;3.25;;;22.90;99.90;;;;;;5095669;28;20204;-59
2023/05/14 10:58:13;;;;;;;3.80;3.35;;;22.80;99.90;;;;;;5095750;28;20663;-61
2023/05/14 11:00:41;;;;;;;3.45;3.08;;;22.60;99.90;;;;;;5095504;28;20212;-61
2023/05/14 11:03:08;;;;;;;5.93;3.33;;;22.50;99.90;;;;;;5096177;28;20204;-60
2023/05/14 11:05:37;;;;;;;3.50;3.20;;;22.40;99.90;;;;;;5095943;28;20715;-58
2023/05/14 11:08:07;;;;;;;3.85;3.30;;;22.50;99.90;;;;;;5096452;28;20208;-58
2023/05/14 11:10:35;;;;;;;4.50;3.30;;;22.70;99.90;;;;;;5095319;28;20619;-61
2023/05/14 11:13:02;;;;;;;3.80;3.30;;;22.90;99.90;;;;;;5096321;28;20724;-62
2023/05/14 11:15:29;;;;;;;4.60;3.20;;;23.10;99.90;;;;;;5096526;28;20287;-60
2023/05/14 11:17:57;;;;;;;3.38;3.08;;;23.20;99.90;;;;;;5096067;28;20204;-60
2023/05/14 11:20:24;;;;;;;3.42;3.05;;;23.30;99.90;;;;;;5095576;28;20671;-60
2023/05/14 11:22:51;;;;;;;3.63;2.85;;;23.40;99.90;;;;;;5095798;28;20253;-60
2023/05/14 11:25:19;;;;;;;3.17;2.50;;;23.50;99.90;;;;;;5091676;28;20227;-61
2023/05/14 11:27:47;;;;;;;4.68;3.20;;;23.70;99.90;;;;;;5094399;28;20283;-59
2023/05/14 11:30:15;;;;;;;3.00;2.75;;;23.70;99.80;;;;;;5096133;28;20236;-62
2023/05/14 11:32:43;;;;;;;3.10;2.80;;;23.50;99.90;;;;;;5095712;28;20857;-60
2023/05/14 11:35:12;;;;;;;3.90;2.97;;;23.00;99.90;;;;;;5094954;28;20215;-60
2023/05/14 11:37:39;;;;;;;2.97;2.75;;;22.60;99.90;;;;;;5095543;28;20321;-60
2023/05/14 11:40:09;;;;;;;3.08;2.70;;;22.40;99.90;;;;;;5095258;28;20208;-60
2023/05/14 11:42:37;;;;;;;3.35;2.95;;;22.30;99.90;;;;;;5095793;28;20222;-59
2023/05/14 11:45:05;;;;;;;3.08;2.80;;;22.30;99.90;;;;;;5095235;28;20220;-60
2023/05/14 11:47:32;;;;;;;3.10;2.80;;;22.20;99.90;;;;;;5094841;28;20219;-60
2023/05/14 11:50:00;;;;;;;3.65;2.92;;;22.30;99.90;;;;;;5095090;28;20272;-59
2023/05/14 11:52:28;;;;;;;3.15;2.83;;;22.40;99.90;;;;;;5095097;28;20243;-60
2023/05/14 11:54:55;;;;;;;5.72;3.17;;;22.40;99.90;;;;;;5094140;28;20668;-58
2023/05/14 11:57:23;;;;;;;4.35;3.20;;;22.30;99.90;;;;;;5094124;28;20204;-59
2023/05/14 11:59:56;;;;;;;3.08;2.78;;;22.10;99.90;;;;;;5094435;28;20216;-62
2023/05/14 12:02:26;;;;;;;3.33;2.75;;;22.00;99.90;;;;;;5095642;28;20440;-60
2023/05/14 12:04:53;;;;;;;2.85;2.60;;;21.90;99.90;;;;;;5094973;28;20211;-57
2023/05/14 12:07:20;;;;;;;3.90;3.10;;;21.90;99.90;;;;;;5094863;28;20234;-58
2023/05/14 12:09:49;;;;;;;4.45;2.97;;;21.90;99.90;;;;;;5094399;28;20231;-57
2023/05/14 12:12:18;;;;;;;3.67;3.08;;;21.70;99.90;;;;;;5094363;28;20747;-58
2023/05/14 12:14:45;;;;;;;3.10;2.80;;;21.70;99.90;;;;;;5094775;28;20607;-57
2023/05/14 12:17:14;;;;;;;4.30;2.95;;;21.70;99.90;;;;;;5094660;28;20232;-58
2023/05/14 12:19:42;;;;;;;5.03;2.58;;;21.70;99.90;;;;;;5094457;28;20552;-57
2023/05/14 12:22:10;;;;;;;3.55;3.20;;;21.90;99.90;;;;;;5094198;28;20236;-58
2023/05/14 12:24:38;;;;;;;3.33;2.97;;;22.10;99.90;;;;;;5094305;28;20291;-57
2023/05/14 12:27:07;;;;;;;3.67;2.83;;;22.30;99.90;;;;;;5093922;28;20235;-58
2023/05/14 12:29:38;;;;;;;2.88;2.63;;;22.60;99.90;;;;;;5094201;28;20204;-57
2023/05/14 12:32:09;;;;;;;3.90;2.90;;;23.00;99.90;;;;;;5094143;28;20684;-57
2023/05/14 12:34:37;;;;;;;2.90;2.60;;;23.10;99.90;;;;;;5093909;28;20667;-58
2023/05/14 12:37:04;;;;;;;3.00;2.70;;;23.10;99.50;;;;;;5094128;28;20207;-57
2023/05/14 12:39:33;;;;;;;3.60;2.60;;;23.00;99.30;;;;;;5093746;28;20208;-58
2023/05/14 12:42:00;;;;;;;4.05;2.58;;;22.70;99.30;;;;;;5094094;28;20272;-57
2023/05/14 12:44:28;;;;;;;3.47;2.42;;;22.40;99.20;;;;;;5093980;28;20200;-58
2023/05/14 12:46:56;;;;;;;3.05;2.45;;;22.40;99.30;;;;;;5093827;28;20228;-57